createdAt,value
2023-03-05T00:01:35.746Z,27.10
2023-03-05T00:04:04.730Z,24.50
2023-03-05T00:06:33.970Z,26.40
2023-03-05T00:09:02.133Z,25.40
2023-03-05T00:11:32.182Z,23.20
2023-03-05T00:14:03.634Z,23.60
2023-03-05T00:16:31.878Z,21.90
2023-03-05T00:19:00.601Z,23.20
2023-03-05T00:21:29.240Z,23.30
2023-03-05T00:24:03.642Z,23.20
2023-03-05T00:26:34.558Z,23.30
2023-03-05T00:29:02.116Z,25.10
2023-03-05T00:31:30.894Z,25.30
2023-03-05T00:34:01.285Z,25.50
2023-03-05T00:36:29.736Z,20.10
2023-03-05T00:38:57.930Z,23.50
2023-03-05T00:41:25.724Z,24.90
2023-03-05T00:43:53.191Z,26.50
2023-03-05T00:46:21.061Z,21.40
2023-03-05T00:48:56.043Z,26.00
2023-03-05T00:51:24.712Z,23.60
2023-03-05T00:53:52.035Z,24.40
2023-03-05T00:56:19.884Z,23.70
2023-03-05T00:58:48.792Z,22.30
2023-03-05T01:01:19.098Z,25.30
2023-03-05T01:03:47.346Z,22.60
2023-03-05T01:06:19.615Z,21.40
2023-03-05T01:08:48.128Z,19.60
2023-03-05T01:13:48.981Z,24.50
2023-03-05T01:16:16.733Z,24.90
2023-03-05T01:18:44.673Z,23.90
2023-03-05T01:21:12.480Z,23.50
2023-03-05T01:23:44.555Z,21.10
2023-03-05T01:26:12.725Z,23.60
2023-03-05T01:28:41.315Z,22.40
2023-03-05T01:31:10.857Z,21.40
2023-03-05T01:33:40.527Z,22.80
2023-03-05T01:36:17.051Z,18.30
2023-03-05T01:38:48.163Z,19.30
2023-03-05T01:41:16.806Z,22.00
2023-03-05T01:43:47.415Z,19.50
2023-03-05T01:46:18.687Z,22.20
2023-03-05T01:48:50.159Z,20.10
2023-03-05T01:51:18.712Z,22.20
2023-03-05T01:53:47.832Z,22.20
2023-03-05T01:56:16.053Z,23.40
2023-03-05T01:58:43.953Z,21.80
2023-03-05T02:01:11.740Z,19.90
2023-03-05T02:03:39.761Z,18.10
2023-03-05T02:06:08.778Z,15.10
2023-03-05T02:08:36.688Z,19.10
2023-03-05T02:11:05.586Z,19.20
2023-03-05T02:13:40.899Z,17.40
2023-03-05T02:16:08.882Z,17.60
2023-03-05T02:18:39.277Z,15.40
2023-03-05T02:21:11.085Z,18.00
2023-03-05T02:23:39.187Z,11.70
2023-03-05T02:26:09.712Z,11.60
2023-03-05T02:28:49.167Z,9.80
2023-03-05T02:31:18.534Z,9.00
2023-03-05T02:33:46.992Z,8.60
2023-03-05T02:36:16.468Z,7.50
2023-03-05T02:38:45.260Z,6.70
2023-03-05T02:41:13.244Z,6.00
2023-03-05T02:43:42.139Z,4.90
2023-03-05T02:46:15.564Z,5.80
2023-03-05T02:48:44.015Z,5.10
2023-03-05T02:51:13.418Z,4.80
2023-03-05T02:53:47.720Z,5.30
2023-03-05T02:56:16.916Z,5.20
2023-03-05T02:58:50.810Z,3.60
2023-03-05T03:01:18.972Z,5.40
2023-03-05T03:03:48.609Z,5.20
2023-03-05T03:06:17.037Z,3.60
2023-03-05T03:08:44.667Z,4.50
2023-03-05T03:11:16.316Z,3.10
2023-03-05T03:13:45.670Z,1.90
2023-03-05T03:16:14.910Z,2.30
2023-03-05T03:18:42.753Z,1.30
2023-03-05T03:21:17.804Z,2.60
2023-03-05T03:23:46.085Z,2.10
2023-03-05T03:26:14.069Z,3.60
2023-03-05T03:28:43.265Z,1.30
2023-03-05T03:31:10.747Z,1.00
2023-03-05T03:33:39.147Z,1.50
2023-03-05T03:36:07.762Z,1.20
2023-03-05T03:38:35.727Z,1.20
2023-03-05T03:41:05.548Z,5.10
2023-03-05T03:43:35.730Z,4.60
2023-03-05T03:46:07.600Z,4.70
2023-03-05T03:48:36.323Z,0.60
2023-03-05T03:51:09.397Z,1.60
2023-03-05T03:53:37.677Z,1.60
2023-03-05T03:56:10.661Z,1.20
2023-03-05T03:58:38.837Z,2.00
2023-03-05T04:01:06.507Z,2.70
2023-03-05T04:03:37.535Z,2.70
2023-03-05T04:06:07.245Z,2.90
2023-03-05T04:08:40.030Z,2.30
2023-03-05T04:11:09.640Z,2.90
2023-03-05T04:13:37.545Z,3.20
2023-03-05T04:16:08.595Z,1.50
2023-03-05T04:18:37.227Z,2.50
2023-03-05T04:21:06.125Z,3.70
2023-03-05T04:23:33.599Z,1.60
2023-03-05T04:26:01.647Z,1.70
2023-03-05T04:28:30.125Z,2.30
2023-03-05T04:30:58.705Z,1.60
2023-03-05T04:33:27.213Z,1.00
2023-03-05T04:35:55.083Z,2.00
2023-03-05T04:38:22.937Z,1.70
2023-03-05T04:40:51.614Z,1.00
2023-03-05T04:43:20.341Z,1.70
2023-03-05T04:45:48.255Z,2.90
2023-03-05T04:48:17.350Z,1.30
2023-03-05T04:50:46.245Z,1.90
2023-03-05T04:53:13.619Z,1.20
2023-03-05T04:55:42.280Z,1.10
2023-03-05T04:58:10.246Z,2.30
2023-03-05T05:00:38.637Z,1.70
2023-03-05T05:03:09.166Z,2.10
2023-03-05T05:05:38.881Z,0.80
2023-03-05T05:08:12.121Z,3.00
2023-03-05T05:10:42.255Z,1.60
2023-03-05T05:13:10.891Z,1.60
2023-03-05T05:15:42.011Z,2.30
2023-03-05T05:18:11.352Z,1.60
2023-03-05T05:20:41.535Z,1.70
2023-03-05T05:23:10.879Z,1.30
2023-03-05T05:25:39.391Z,1.60
2023-03-05T05:28:07.724Z,1.80
2023-03-05T05:30:35.860Z,1.70
2023-03-05T05:33:04.349Z,1.80
2023-03-05T05:35:33.271Z,2.00
2023-03-05T05:38:01.821Z,1.40
2023-03-05T05:40:31.227Z,1.80
2023-03-05T05:43:00.149Z,1.00
2023-03-05T05:45:29.467Z,0.50
2023-03-05T05:47:57.385Z,2.10
2023-03-05T05:50:27.914Z,1.90
2023-03-05T05:52:56.194Z,3.50
2023-03-05T05:55:24.475Z,2.10
2023-03-05T05:58:13.700Z,2.90
2023-03-05T06:00:46.106Z,1.60
2023-03-05T06:03:14.072Z,1.70
2023-03-05T06:05:43.100Z,3.60
2023-03-05T06:08:11.866Z,2.00
2023-03-05T06:10:39.956Z,0.70
2023-03-05T06:13:13.427Z,2.00
2023-03-05T06:15:42.824Z,1.90
2023-03-05T06:18:10.535Z,1.90
2023-03-05T06:20:39.313Z,4.80
2023-03-05T06:23:07.576Z,1.60
2023-03-05T06:25:35.422Z,1.70
2023-03-05T06:28:04.213Z,1.70
2023-03-05T06:30:32.362Z,1.80
2023-03-05T06:33:01.704Z,2.10
2023-03-05T06:35:31.754Z,1.90
2023-03-05T06:38:02.949Z,1.20
2023-03-05T06:40:31.170Z,1.30
2023-03-05T06:43:00.046Z,2.20
2023-03-05T06:45:28.816Z,1.50
2023-03-05T06:47:56.593Z,0.90
2023-03-05T06:50:25.331Z,1.40
2023-03-05T06:52:54.305Z,1.20
2023-03-05T06:55:25.137Z,1.30
2023-03-05T06:57:53.544Z,5.20
2023-03-05T07:00:22.173Z,1.90
2023-03-05T07:02:52.374Z,2.30
2023-03-05T07:05:21.113Z,1.20
2023-03-05T07:07:50.818Z,2.20
2023-03-05T07:10:19.652Z,2.90
2023-03-05T07:12:55.084Z,2.60
2023-03-05T07:15:23.582Z,2.20
2023-03-05T07:17:52.394Z,3.70
2023-03-05T07:20:21.132Z,1.70
2023-03-05T07:22:49.326Z,3.10
2023-03-05T07:25:22.214Z,1.40
2023-03-05T07:27:50.330Z,2.50
2023-03-05T07:30:19.077Z,1.90
2023-03-05T07:32:49.765Z,2.90
2023-03-05T07:35:19.739Z,2.60
2023-03-05T07:37:47.986Z,2.60
2023-03-05T07:40:17.597Z,2.80
2023-03-05T07:42:48.702Z,3.50
2023-03-05T07:45:24.008Z,3.00
2023-03-05T07:47:58.909Z,2.80
2023-03-05T07:50:27.351Z,1.60
2023-03-05T07:52:55.270Z,1.80
2023-03-05T07:55:23.756Z,1.60
2023-03-05T07:57:53.618Z,1.30
2023-03-05T08:00:21.621Z,2.70
2023-03-05T08:02:50.905Z,2.50
2023-03-05T08:05:19.627Z,1.90
2023-03-05T08:07:56.283Z,1.80
2023-03-05T08:10:25.839Z,2.10
2023-03-05T08:12:59.045Z,2.40
2023-03-05T08:15:27.051Z,4.00
2023-03-05T08:17:56.360Z,1.80
2023-03-05T08:20:25.448Z,2.10
2023-03-05T08:22:55.284Z,1.70
2023-03-05T08:25:27.669Z,1.90
2023-03-05T08:27:58.575Z,2.90
2023-03-05T08:30:27.807Z,0.90
2023-03-05T08:32:56.357Z,2.40
2023-03-05T08:35:25.300Z,2.60
2023-03-05T08:37:54.928Z,1.90
2023-03-05T08:40:24.046Z,1.00
2023-03-05T08:42:53.058Z,2.30
2023-03-05T08:45:22.078Z,1.70
2023-03-05T08:47:50.614Z,2.00
2023-03-05T08:50:23.587Z,3.00
2023-03-05T08:52:52.207Z,1.90
2023-03-05T08:55:20.525Z,3.60
2023-03-05T08:57:49.576Z,2.40
2023-03-05T09:00:18.853Z,3.00
2023-03-05T09:02:48.918Z,3.30
2023-03-05T09:05:19.544Z,2.60
2023-03-05T09:07:48.031Z,1.80
2023-03-05T09:10:19.493Z,1.80
2023-03-05T09:12:49.832Z,2.00
2023-03-05T09:15:22.163Z,1.00
2023-03-05T09:17:52.758Z,2.00
2023-03-05T09:20:21.816Z,1.80
2023-03-05T09:22:54.686Z,3.30
2023-03-05T09:25:23.333Z,2.60
2023-03-05T09:27:52.327Z,1.60
2023-03-05T09:30:22.167Z,2.70
2023-03-05T09:32:51.415Z,2.60
2023-03-05T09:35:19.667Z,2.90
2023-03-05T09:37:48.116Z,1.80
2023-03-05T09:40:18.205Z,2.60
2023-03-05T09:45:48.765Z,2.20
2023-03-05T09:48:25.729Z,1.40
2023-03-05T09:51:04.392Z,3.60
2023-03-05T09:53:57.564Z,2.40
2023-03-05T09:56:31.693Z,3.10
2023-03-05T09:59:26.195Z,1.90
2023-03-05T10:01:55.512Z,1.80
2023-03-05T10:04:44.754Z,2.00
2023-03-05T10:07:37.770Z,2.60
2023-03-05T10:10:22.820Z,2.30
2023-03-05T10:12:53.249Z,2.00
2023-03-05T10:15:27.531Z,2.10
2023-03-05T10:21:02.179Z,2.80
2023-03-05T10:23:33.277Z,3.70
2023-03-05T10:26:31.938Z,3.40
2023-03-05T10:29:35.223Z,3.70
2023-03-05T10:32:48.780Z,2.00
2023-03-05T10:35:40.301Z,3.30
2023-03-05T10:38:18.602Z,2.20
2023-03-05T10:40:48.147Z,2.80
2023-03-05T10:43:22.650Z,2.90
2023-03-05T10:45:54.905Z,3.80
2023-03-05T10:48:34.595Z,1.90
2023-03-05T10:51:12.888Z,4.00
2023-03-05T10:53:59.378Z,4.00
2023-03-05T10:56:28.947Z,2.50
2023-03-05T10:58:59.465Z,3.40
2023-03-05T11:01:29.754Z,3.00
2023-03-05T11:04:05.966Z,2.20
2023-03-05T11:06:39.190Z,2.60
2023-03-05T11:09:14.223Z,2.30
2023-03-05T11:11:42.784Z,3.60
2023-03-05T11:14:34.125Z,2.90
2023-03-05T11:17:23.510Z,3.40
2023-03-05T11:19:51.380Z,3.70
2023-03-05T11:22:21.815Z,3.20
2023-03-05T11:25:19.678Z,3.00
2023-03-05T11:28:24.102Z,3.00
2023-03-05T11:31:07.820Z,2.20
2023-03-05T11:33:36.797Z,5.10
2023-03-05T11:36:27.618Z,2.40
2023-03-05T11:39:00.386Z,2.30
2023-03-05T11:41:33.874Z,3.20
2023-03-05T11:44:04.388Z,1.90
2023-03-05T11:46:38.315Z,2.50
2023-03-05T11:49:07.597Z,3.30
2023-03-05T11:51:49.838Z,3.70
2023-03-05T11:54:22.406Z,4.40
2023-03-05T11:56:53.018Z,3.20
2023-03-05T11:59:40.828Z,2.40
2023-03-05T12:02:23.805Z,3.30
2023-03-05T12:04:52.498Z,2.30
2023-03-05T12:07:28.463Z,2.20
2023-03-05T12:09:57.731Z,2.10
2023-03-05T12:12:59.008Z,2.50
2023-03-05T12:15:38.871Z,3.20
2023-03-05T12:18:11.723Z,3.80
2023-03-05T12:21:06.382Z,2.30
2023-03-05T12:23:50.678Z,2.80
2023-03-05T12:26:43.528Z,2.70
2023-03-05T12:29:31.613Z,2.50
2023-03-05T12:32:01.420Z,2.20
2023-03-05T12:34:43.561Z,2.40
2023-03-05T12:37:21.078Z,2.60
2023-03-05T12:40:23.839Z,2.40
2023-03-05T12:43:29.096Z,2.20
2023-03-05T12:46:30.472Z,4.10
2023-03-05T12:49:03.059Z,2.30
2023-03-05T12:51:39.651Z,2.60
2023-03-05T12:54:34.413Z,3.10
2023-03-05T12:57:25.030Z,3.70
2023-03-05T13:00:11.812Z,2.20
2023-03-05T13:02:43.270Z,3.80
2023-03-05T13:05:30.656Z,2.50
2023-03-05T13:08:22.112Z,3.30
2023-03-05T13:11:07.622Z,3.20
2023-03-05T13:13:39.171Z,4.50
2023-03-05T13:16:22.289Z,4.50
2023-03-05T13:18:52.289Z,3.90
2023-03-05T13:21:29.874Z,2.30
2023-03-05T13:24:00.016Z,3.50
2023-03-05T13:26:36.846Z,3.70
2023-03-05T13:31:37.355Z,5.20
2023-03-05T13:34:47.399Z,5.10
2023-03-05T13:37:24.808Z,3.50
2023-03-05T13:39:59.949Z,4.60
2023-03-05T13:42:32.428Z,4.60
2023-03-05T13:45:02.606Z,4.90
2023-03-05T13:47:33.656Z,4.80
2023-03-05T13:50:06.896Z,4.40
2023-03-05T13:52:37.052Z,6.90
2023-03-05T13:55:13.603Z,4.00
2023-03-05T13:57:44.284Z,3.40
2023-03-05T14:00:38.081Z,6.30
2023-03-05T14:03:30.371Z,4.20
2023-03-05T14:06:13.302Z,4.40
2023-03-05T14:08:43.558Z,3.90
2023-03-05T14:11:16.498Z,4.10
2023-03-05T14:13:45.563Z,4.60
2023-03-05T14:16:25.495Z,5.30
2023-03-05T14:18:58.365Z,3.60
2023-03-05T14:21:42.845Z,3.10
2023-03-05T14:24:24.050Z,2.80
2023-03-05T14:26:56.586Z,3.60
2023-03-05T14:29:28.639Z,3.90
2023-03-05T14:34:40.863Z,3.10
2023-03-05T14:37:30.246Z,2.80
2023-03-05T14:40:06.426Z,3.40
2023-03-05T14:49:26.859Z,3.10
2023-03-05T14:51:56.122Z,3.60
2023-03-05T14:54:25.157Z,4.30
2023-03-05T14:56:54.437Z,3.50
2023-03-05T14:59:22.886Z,4.40
2023-03-05T15:01:52.082Z,3.40
2023-03-05T15:04:21.244Z,3.50
2023-03-05T15:06:51.808Z,4.40
2023-03-05T15:09:21.504Z,4.00
2023-03-05T15:11:55.829Z,4.20
2023-03-05T15:14:25.575Z,4.30
2023-03-05T15:16:55.805Z,4.30
2023-03-05T15:19:26.120Z,3.70
2023-03-05T15:21:57.177Z,4.40
2023-03-05T15:24:30.049Z,4.00
2023-03-05T15:26:58.710Z,3.30
2023-03-05T15:29:27.361Z,3.00
2023-03-05T15:31:56.104Z,2.70
2023-03-05T15:34:23.919Z,4.00
2023-03-05T15:36:55.929Z,4.70
2023-03-05T15:39:25.772Z,3.70
2023-03-05T15:41:54.500Z,3.90
2023-03-05T15:44:22.722Z,4.90
2023-03-05T15:46:51.934Z,3.70
2023-03-05T15:49:22.937Z,4.30
2023-03-05T15:51:52.348Z,4.20
2023-03-05T15:54:21.235Z,4.20
2023-03-05T15:56:50.502Z,4.10
2023-03-05T15:59:19.862Z,4.00
2023-03-05T16:01:52.069Z,4.60
2023-03-05T16:06:50.048Z,2.50
2023-03-05T16:09:20.694Z,4.70
2023-03-05T16:11:51.697Z,4.70
2023-03-05T16:14:23.439Z,4.40
2023-03-05T16:16:53.303Z,4.80
2023-03-05T16:19:23.116Z,5.60
2023-03-05T16:21:52.210Z,7.30
2023-03-05T16:24:21.548Z,4.70
2023-03-05T16:26:49.871Z,6.30
2023-03-05T16:29:17.699Z,7.20
2023-03-05T16:31:46.926Z,5.30
2023-03-05T16:34:16.363Z,5.20
2023-03-05T16:36:48.378Z,6.00
2023-03-05T16:39:22.934Z,5.90
2023-03-05T16:41:52.704Z,6.60
2023-03-05T16:44:20.713Z,5.40
2023-03-05T16:46:53.483Z,4.80
2023-03-05T16:49:21.412Z,4.50
2023-03-05T16:51:50.449Z,6.20
2023-03-05T16:54:17.989Z,3.40
2023-03-05T16:56:46.483Z,4.20
2023-03-05T16:59:15.198Z,4.70
2023-03-05T17:01:48.956Z,3.70
2023-03-05T17:04:17.479Z,4.60
2023-03-05T17:06:49.463Z,4.20
2023-03-05T17:09:25.458Z,4.30
2023-03-05T17:14:23.592Z,4.20
2023-03-05T17:16:51.283Z,5.00
2023-03-05T17:19:25.502Z,7.70
2023-03-05T17:21:53.573Z,5.10
2023-03-05T17:24:22.714Z,5.90
2023-03-05T17:26:50.744Z,5.60
2023-03-05T17:29:19.934Z,8.40
2023-03-05T17:31:49.859Z,6.60
2023-03-05T17:34:18.404Z,10.50
2023-03-05T17:36:50.654Z,9.80
2023-03-05T17:39:19.308Z,8.20
2023-03-05T17:41:47.518Z,8.00
2023-03-05T17:44:15.768Z,8.30
2023-03-05T17:46:43.920Z,7.60
2023-03-05T17:49:12.188Z,7.00
2023-03-05T17:51:40.236Z,10.10
2023-03-05T17:54:08.743Z,8.10
2023-03-05T17:56:39.119Z,7.90
2023-03-05T17:59:07.264Z,10.40
2023-03-05T18:01:38.693Z,9.70
2023-03-05T18:04:07.242Z,9.20
2023-03-05T18:06:35.312Z,8.50
2023-03-05T18:09:06.133Z,8.90
2023-03-05T18:11:34.701Z,7.80
2023-03-05T18:14:07.861Z,8.70
2023-03-05T18:16:36.135Z,8.80
2023-03-05T18:19:04.949Z,8.70
2023-03-05T18:21:33.604Z,10.10
2023-03-05T18:24:01.886Z,10.50
2023-03-05T18:26:30.374Z,10.90
2023-03-05T18:28:59.016Z,13.40
2023-03-05T18:31:27.129Z,13.80
2023-03-05T18:33:55.938Z,12.40
2023-03-05T18:36:25.063Z,7.50
2023-03-05T18:38:58.626Z,8.20
2023-03-05T18:41:28.179Z,8.60
2023-03-05T18:43:57.031Z,10.30
2023-03-05T18:46:25.272Z,10.60
2023-03-05T18:48:54.466Z,10.20
2023-03-05T18:51:24.170Z,11.60
2023-03-05T18:53:55.237Z,12.90
2023-03-05T18:56:29.755Z,10.80
2023-03-05T18:58:59.047Z,9.20
2023-03-05T19:01:27.604Z,14.40
2023-03-05T19:03:55.558Z,11.40
2023-03-05T19:06:23.997Z,16.40
2023-03-05T19:09:31.136Z,12.10
2023-03-05T19:12:11.657Z,12.00
2023-03-05T19:14:42.676Z,10.50
2023-03-05T19:17:11.694Z,10.10
2023-03-05T19:19:43.112Z,10.90
2023-03-05T19:22:14.491Z,9.50
2023-03-05T19:24:42.781Z,8.60
2023-03-05T19:27:13.376Z,9.30
2023-03-05T19:29:43.094Z,11.40
2023-03-05T19:32:16.132Z,11.30
2023-03-05T19:34:45.362Z,10.70
2023-03-05T19:37:15.129Z,9.00
2023-03-05T19:39:42.835Z,9.70
2023-03-05T19:42:12.613Z,7.90
2023-03-05T19:44:40.100Z,8.90
2023-03-05T19:47:07.818Z,7.60
2023-03-05T19:49:36.342Z,8.00
2023-03-05T19:52:06.380Z,7.30
2023-03-05T19:54:35.705Z,9.90
2023-03-05T19:57:07.194Z,6.80
2023-03-05T19:59:35.009Z,7.70
2023-03-05T20:02:03.399Z,9.50
2023-03-05T20:04:34.702Z,9.30
2023-03-05T20:07:04.003Z,8.80
2023-03-05T20:09:37.719Z,8.20
2023-03-05T20:12:07.874Z,6.80
2023-03-05T20:14:36.091Z,7.60
2023-03-05T20:17:04.425Z,7.20
2023-03-05T20:19:32.497Z,6.50
2023-03-05T20:22:01.380Z,7.20
2023-03-05T20:24:29.059Z,6.60
2023-03-05T20:26:57.401Z,6.90
2023-03-05T20:29:25.672Z,8.10
2023-03-05T20:31:56.506Z,8.90
2023-03-05T20:34:23.572Z,10.10
2023-03-05T20:36:51.323Z,9.40
2023-03-05T20:39:19.183Z,11.50
2023-03-05T20:41:47.494Z,9.50
2023-03-05T20:44:17.236Z,8.30
2023-03-05T20:47:12.896Z,7.30
2023-03-05T20:49:40.477Z,8.80
2023-03-05T20:52:09.944Z,8.30
2023-03-05T20:54:38.161Z,9.10
2023-03-05T20:57:06.399Z,7.00
2023-03-05T20:59:37.781Z,7.30
2023-03-05T21:02:06.005Z,10.10
2023-03-05T21:04:37.885Z,9.60
2023-03-05T21:07:06.277Z,9.80
2023-03-05T21:09:35.003Z,8.80
2023-03-05T21:12:06.287Z,8.90
2023-03-05T21:14:38.135Z,9.00
2023-03-05T21:17:09.691Z,9.00
2023-03-05T21:19:39.259Z,9.30
2023-03-05T21:22:06.635Z,7.90
2023-03-05T21:24:53.854Z,7.30
2023-03-05T21:27:34.558Z,9.30
2023-03-05T21:30:04.084Z,8.50
2023-03-05T21:32:32.949Z,8.10
2023-03-05T21:37:27.114Z,9.00
2023-03-05T21:39:54.409Z,9.50
2023-03-05T21:42:22.321Z,8.60
2023-03-05T21:44:49.796Z,7.80
2023-03-05T21:47:18.656Z,8.80
2023-03-05T21:49:46.184Z,10.30
2023-03-05T21:52:13.460Z,7.70
2023-03-05T21:54:43.268Z,10.10
2023-03-05T21:57:11.355Z,10.70
2023-03-05T21:59:42.987Z,9.60
2023-03-05T22:02:16.797Z,8.60
2023-03-05T22:04:45.223Z,7.40
2023-03-05T22:07:14.747Z,7.70
2023-03-05T22:09:42.202Z,7.30
2023-03-05T22:12:32.809Z,6.70
2023-03-05T22:15:00.372Z,8.70
2023-03-05T22:17:31.216Z,7.70
2023-03-05T22:19:58.871Z,7.40
2023-03-05T22:22:26.004Z,8.70
2023-03-05T22:24:53.234Z,7.50
2023-03-05T22:27:20.727Z,10.80
2023-03-05T22:29:48.103Z,7.50
2023-03-05T22:32:15.317Z,9.10
2023-03-05T22:34:42.550Z,8.20
2023-03-05T22:37:10.653Z,8.40
2023-03-05T22:39:38.672Z,8.00
2023-03-05T22:42:07.098Z,8.80
2023-03-05T22:44:34.555Z,8.30
2023-03-05T22:47:04.270Z,9.50
2023-03-05T22:49:34.488Z,8.60
2023-03-05T22:52:02.227Z,8.40
2023-03-05T22:54:29.395Z,9.70
2023-03-05T22:56:56.644Z,11.00
2023-03-05T22:59:24.528Z,12.30
2023-03-05T23:01:52.545Z,10.30
2023-03-05T23:04:49.594Z,10.60
2023-03-05T23:07:19.361Z,9.80
2023-03-05T23:09:51.841Z,10.20
2023-03-05T23:12:19.103Z,9.40
2023-03-05T23:14:46.865Z,11.10
2023-03-05T23:17:16.251Z,10.60
2023-03-05T23:19:44.335Z,11.60
2023-03-05T23:22:12.880Z,11.60
2023-03-05T23:24:40.637Z,10.60
2023-03-05T23:27:09.135Z,9.70
2023-03-05T23:29:58.830Z,11.40
2023-03-05T23:32:36.240Z,10.50
2023-03-05T23:35:03.573Z,9.90
2023-03-05T23:37:30.737Z,8.70
2023-03-05T23:39:58.396Z,7.90
2023-03-05T23:42:25.531Z,10.60
2023-03-05T23:44:55.235Z,8.50
2023-03-05T23:47:22.419Z,9.40
2023-03-05T23:49:50.458Z,11.40
2023-03-05T23:52:21.203Z,8.60
2023-03-05T23:54:48.374Z,8.20
2023-03-05T23:57:16.119Z,8.70
2023-03-05T23:59:43.197Z,9.30
